createdAt,value
2023-03-01T00:01:11.950Z,-1.64
2023-03-01T00:03:38.963Z,-1.80
2023-03-01T00:06:06.711Z,-1.79
2023-03-01T00:08:34.144Z,-1.90
2023-03-01T00:11:13.394Z,-1.86
2023-03-01T00:13:40.231Z,-1.77
2023-03-01T00:16:16.202Z,-1.75
2023-03-01T00:18:45.436Z,-1.66
2023-03-01T00:21:12.318Z,-1.81
2023-03-01T00:23:39.564Z,-2.00
2023-03-01T00:26:14.242Z,-1.92
2023-03-01T00:28:41.228Z,-1.90
2023-03-01T00:31:12.898Z,-1.87
2023-03-01T00:33:39.965Z,-1.85
2023-03-01T00:36:07.803Z,-1.73
2023-03-01T00:38:40.186Z,-1.79
2023-03-01T00:41:08.848Z,-1.64
2023-03-01T00:43:37.673Z,-1.68
2023-03-01T00:46:07.125Z,-1.92
2023-03-01T00:48:34.282Z,-2.18
2023-03-01T00:51:06.833Z,-2.19
2023-03-01T00:53:36.781Z,-2.42
2023-03-01T00:56:05.265Z,-2.32
2023-03-01T00:58:31.969Z,-2.35
2023-03-01T01:00:58.535Z,-2.36
2023-03-01T01:03:25.886Z,-2.30
2023-03-01T01:05:53.737Z,-2.34
2023-03-01T01:08:21.708Z,-2.41
2023-03-01T01:10:48.771Z,-2.59
2023-03-01T01:13:15.494Z,-2.41
2023-03-01T01:15:42.412Z,-2.14
2023-03-01T01:18:08.949Z,-2.02
2023-03-01T01:20:38.610Z,-2.23
2023-03-01T01:23:07.690Z,-2.30
2023-03-01T01:25:36.870Z,-2.50
2023-03-01T01:28:03.583Z,-2.29
2023-03-01T01:30:30.038Z,-2.37
2023-03-01T01:32:56.487Z,-2.49
2023-03-01T01:35:23.012Z,-2.35
2023-03-01T01:37:49.466Z,-2.21
2023-03-01T01:40:15.862Z,-2.36
2023-03-01T01:42:42.281Z,-2.38
2023-03-01T01:45:36.828Z,-2.04
2023-03-01T01:48:13.912Z,-2.36
2023-03-01T01:50:46.024Z,-2.39
2023-03-01T01:53:20.923Z,-2.39
2023-03-01T01:55:52.643Z,-2.40
2023-03-01T01:58:21.746Z,-2.46
2023-03-01T02:00:49.054Z,-2.11
2023-03-01T02:03:19.851Z,-2.02
2023-03-01T02:05:55.268Z,-2.62
2023-03-01T02:08:25.896Z,-2.76
2023-03-01T02:10:54.132Z,-2.63
2023-03-01T02:13:20.666Z,-3.00
2023-03-01T02:15:47.248Z,-3.10
2023-03-01T02:18:19.377Z,-2.95
2023-03-01T02:20:57.596Z,-2.50
2023-03-01T02:23:24.361Z,-2.49
2023-03-01T02:26:02.215Z,-2.59
2023-03-01T02:28:37.430Z,-2.58
2023-03-01T02:31:25.656Z,-2.75
2023-03-01T02:33:53.771Z,-2.57
2023-03-01T02:36:24.468Z,-2.50
2023-03-01T02:38:54.789Z,-2.83
2023-03-01T02:41:22.855Z,-2.74
2023-03-01T02:43:52.264Z,-2.61
2023-03-01T02:46:25.154Z,-2.74
2023-03-01T02:48:55.400Z,-2.48
2023-03-01T02:51:41.534Z,-2.66
2023-03-01T02:54:29.594Z,-2.47
2023-03-01T02:56:58.751Z,-2.77
2023-03-01T02:59:29.383Z,-2.77
2023-03-01T03:01:55.841Z,-2.75
2023-03-01T03:04:22.330Z,-2.92
2023-03-01T03:06:50.914Z,-2.87
2023-03-01T03:09:19.164Z,-2.78
2023-03-01T03:11:45.687Z,-2.77
2023-03-01T03:14:14.879Z,-2.97
2023-03-01T03:16:50.168Z,-2.88
2023-03-01T03:19:20.357Z,-2.65
2023-03-01T03:21:47.128Z,-2.53
2023-03-01T03:24:13.668Z,-2.39
2023-03-01T03:26:40.071Z,-2.57
2023-03-01T03:29:06.482Z,-2.78
2023-03-01T03:31:32.886Z,-2.67
2023-03-01T03:33:59.995Z,-2.63
2023-03-01T03:36:26.785Z,-2.50
2023-03-01T03:38:53.444Z,-2.48
2023-03-01T03:41:19.881Z,-2.60
2023-03-01T03:43:46.390Z,-2.71
2023-03-01T03:46:13.707Z,-2.77
2023-03-01T03:48:43.376Z,-2.64
2023-03-01T03:51:14.711Z,-2.84
2023-03-01T03:53:41.479Z,-2.84
2023-03-01T03:56:08.244Z,-2.96
2023-03-01T03:58:34.961Z,-2.67
2023-03-01T04:01:01.891Z,-2.51
2023-03-01T04:03:30.051Z,-2.55
2023-03-01T04:05:59.292Z,-2.58
2023-03-01T04:08:26.901Z,-2.87
2023-03-01T04:10:57.958Z,-3.07
2023-03-01T04:13:26.326Z,-2.92
2023-03-01T04:15:54.642Z,-3.11
2023-03-01T04:18:23.941Z,-3.40
2023-03-01T04:20:53.271Z,-3.26
2023-03-01T04:23:21.638Z,-2.89
2023-03-01T04:25:55.921Z,-3.56
2023-03-01T04:28:28.160Z,-3.54
2023-03-01T04:30:56.455Z,-3.40
2023-03-01T04:33:24.412Z,-3.26
2023-03-01T04:35:51.207Z,-3.08
2023-03-01T04:38:22.299Z,-3.32
2023-03-01T04:40:49.219Z,-3.27
2023-03-01T04:43:16.153Z,-3.11
2023-03-01T04:45:43.192Z,-3.14
2023-03-01T04:48:11.543Z,-3.40
2023-03-01T04:50:39.214Z,-3.64
2023-03-01T04:53:05.597Z,-3.53
2023-03-01T04:55:34.766Z,-3.43
2023-03-01T04:58:01.190Z,-3.38
2023-03-01T05:00:27.659Z,-3.35
2023-03-01T05:02:58.008Z,-3.22
2023-03-01T05:05:34.624Z,-3.36
2023-03-01T05:08:05.184Z,-3.52
2023-03-01T05:10:34.501Z,-3.42
2023-03-01T05:13:01.013Z,-3.56
2023-03-01T05:15:28.949Z,-3.46
2023-03-01T05:17:59.641Z,-3.48
2023-03-01T05:20:30.658Z,-3.50
2023-03-01T05:22:59.803Z,-3.38
2023-03-01T05:25:27.031Z,-3.23
2023-03-01T05:27:53.459Z,-3.21
2023-03-01T05:30:21.959Z,-3.27
2023-03-01T05:32:50.642Z,-3.36
2023-03-01T05:35:19.160Z,-3.48
2023-03-01T05:37:48.308Z,-3.36
2023-03-01T05:40:17.918Z,-3.43
2023-03-01T05:42:50.306Z,-3.49
2023-03-01T05:45:18.257Z,-3.48
2023-03-01T05:47:46.993Z,-3.48
2023-03-01T05:50:20.576Z,-3.51
2023-03-01T05:52:52.585Z,-3.22
2023-03-01T05:55:21.429Z,-3.29
2023-03-01T05:57:49.044Z,-3.23
2023-03-01T06:00:17.158Z,-3.24
2023-03-01T06:02:43.700Z,-3.09
2023-03-01T06:05:12.699Z,-3.25
2023-03-01T06:07:40.087Z,-3.31
2023-03-01T06:10:09.158Z,-3.22
2023-03-01T06:12:39.703Z,-3.36
2023-03-01T06:15:07.786Z,-3.42
2023-03-01T06:17:38.384Z,-3.55
2023-03-01T06:20:20.327Z,-3.56
2023-03-01T06:22:50.511Z,-3.37
2023-03-01T06:25:19.796Z,-3.44
2023-03-01T06:27:46.789Z,-3.61
2023-03-01T06:30:16.290Z,-3.67
2023-03-01T06:32:45.615Z,-3.37
2023-03-01T06:35:14.240Z,-3.60
2023-03-01T06:37:42.045Z,-3.50
2023-03-01T06:40:12.660Z,-3.54
2023-03-01T06:42:42.204Z,-3.72
2023-03-01T06:45:09.700Z,-4.05
2023-03-01T06:47:36.234Z,-4.04
2023-03-01T06:50:03.614Z,-4.09
2023-03-01T06:52:30.578Z,-4.00
2023-03-01T06:54:57.014Z,-3.96
2023-03-01T06:57:23.468Z,-3.90
2023-03-01T06:59:50.086Z,-3.75
2023-03-01T07:02:16.674Z,-3.65
2023-03-01T07:04:43.648Z,-3.76
2023-03-01T07:07:11.272Z,-3.61
2023-03-01T07:09:39.307Z,-3.29
2023-03-01T07:12:06.190Z,-2.97
2023-03-01T07:14:32.643Z,-3.01
2023-03-01T07:16:59.109Z,-2.67
2023-03-01T07:19:25.583Z,-2.34
2023-03-01T07:21:52.059Z,-2.37
2023-03-01T07:24:21.503Z,-2.14
2023-03-01T07:26:52.149Z,-2.01
2023-03-01T07:29:18.882Z,-2.00
2023-03-01T07:31:45.909Z,-1.73
2023-03-01T07:34:12.563Z,-1.60
2023-03-01T07:36:40.465Z,-1.43
2023-03-01T07:39:06.900Z,-1.30
2023-03-01T07:41:33.954Z,-1.02
2023-03-01T07:44:00.353Z,-0.90
2023-03-01T07:46:26.858Z,-0.63
2023-03-01T07:48:53.624Z,0.27
2023-03-01T07:51:21.285Z,0.54
2023-03-01T07:53:49.224Z,0.28
2023-03-01T07:56:18.526Z,0.52
2023-03-01T07:58:45.507Z,0.91
2023-03-01T08:01:19.272Z,1.16
2023-03-01T08:03:46.569Z,0.88
2023-03-01T08:06:15.154Z,2.02
2023-03-01T08:08:42.059Z,2.35
2023-03-01T08:11:15.641Z,2.42
2023-03-01T08:13:43.260Z,3.01
2023-03-01T08:16:13.881Z,2.59
2023-03-01T08:18:41.106Z,2.72
2023-03-01T08:21:10.362Z,3.29
2023-03-01T08:23:37.434Z,2.76
2023-03-01T08:26:16.456Z,3.35
2023-03-01T08:28:43.385Z,3.32
2023-03-01T08:31:19.752Z,3.83
2023-03-01T08:33:52.443Z,3.81
2023-03-01T08:36:19.427Z,3.79
2023-03-01T08:38:46.870Z,4.45
2023-03-01T08:41:13.679Z,4.20
2023-03-01T08:43:40.105Z,4.05
2023-03-01T08:46:06.958Z,3.87
2023-03-01T08:48:33.525Z,4.47
2023-03-01T08:51:19.991Z,4.70
2023-03-01T08:53:47.040Z,4.10
2023-03-01T08:56:13.838Z,4.37
2023-03-01T08:58:43.195Z,4.15
2023-03-01T09:01:11.440Z,4.63
2023-03-01T09:03:38.675Z,4.49
2023-03-01T09:06:06.982Z,4.23
2023-03-01T09:08:36.457Z,5.08
2023-03-01T09:11:05.229Z,3.18
2023-03-01T09:13:34.808Z,3.89
2023-03-01T09:16:07.143Z,5.61
2023-03-01T09:18:35.133Z,5.53
2023-03-01T09:21:03.587Z,5.25
2023-03-01T09:23:30.012Z,5.44
2023-03-01T09:25:56.527Z,4.73
2023-03-01T09:28:29.652Z,5.46
2023-03-01T09:30:58.905Z,5.52
2023-03-01T09:33:25.529Z,3.62
2023-03-01T09:36:00.430Z,4.15
2023-03-01T09:38:27.314Z,5.16
2023-03-01T09:40:53.998Z,4.31
2023-03-01T09:43:56.445Z,5.90
2023-03-01T09:46:24.876Z,6.13
2023-03-01T09:49:07.337Z,5.46
2023-03-01T09:51:36.210Z,5.87
2023-03-01T09:54:07.227Z,5.41
2023-03-01T09:56:40.658Z,4.99
2023-03-01T09:59:16.139Z,3.71
2023-03-01T10:02:22.645Z,6.60
2023-03-01T10:04:56.381Z,5.55
2023-03-01T10:07:37.332Z,5.82
2023-03-01T10:10:08.948Z,6.53
2023-03-01T10:12:43.365Z,6.07
2023-03-01T10:15:20.462Z,6.24
2023-03-01T10:17:57.380Z,5.37
2023-03-01T10:20:34.824Z,5.73
2023-03-01T10:23:01.965Z,6.66
2023-03-01T10:26:02.782Z,7.67
2023-03-01T10:28:59.485Z,6.62
2023-03-01T10:31:56.041Z,6.34
2023-03-01T10:34:35.762Z,6.18
2023-03-01T10:37:14.751Z,5.73
2023-03-01T10:40:10.947Z,5.33
2023-03-01T10:42:48.775Z,5.05
2023-03-01T10:45:16.898Z,6.53
2023-03-01T10:47:43.646Z,7.08
2023-03-01T10:50:22.550Z,6.25
2023-03-01T10:53:05.981Z,6.55
2023-03-01T10:55:40.885Z,5.66
2023-03-01T10:58:21.780Z,6.31
2023-03-01T11:00:53.706Z,6.26
2023-03-01T11:03:24.472Z,6.17
2023-03-01T11:06:00.952Z,7.18
2023-03-01T11:08:57.683Z,7.05
2023-03-01T11:11:32.702Z,6.36
2023-03-01T11:14:26.455Z,7.00
2023-03-01T11:17:03.276Z,6.82
2023-03-01T11:19:29.848Z,6.74
2023-03-01T11:22:05.434Z,6.41
2023-03-01T11:25:03.537Z,6.13
2023-03-01T11:27:40.693Z,6.49
2023-03-01T11:30:34.683Z,5.64
2023-03-01T11:33:09.978Z,6.09
2023-03-01T11:35:44.086Z,6.03
2023-03-01T11:38:16.606Z,7.16
2023-03-01T11:40:49.393Z,4.74
2023-03-01T11:43:20.307Z,6.60
2023-03-01T11:46:05.471Z,6.57
2023-03-01T11:48:49.918Z,6.33
2023-03-01T11:51:39.224Z,6.95
2023-03-01T11:54:20.823Z,5.88
2023-03-01T11:57:22.567Z,7.64
2023-03-01T12:00:04.645Z,7.26
2023-03-01T12:02:46.411Z,7.13
2023-03-01T12:05:16.570Z,7.09
2023-03-01T12:08:06.654Z,7.77
2023-03-01T12:11:11.357Z,8.34
2023-03-01T12:14:11.959Z,7.59
2023-03-01T12:17:00.342Z,6.99
2023-03-01T12:19:42.062Z,7.39
2023-03-01T12:22:20.915Z,6.97
2023-03-01T12:25:16.405Z,6.40
2023-03-01T12:27:59.360Z,8.40
2023-03-01T12:30:44.715Z,9.03
2023-03-01T12:33:39.019Z,6.60
2023-03-01T12:36:11.611Z,7.97
2023-03-01T12:38:49.811Z,7.23
2023-03-01T12:41:34.618Z,8.56
2023-03-01T12:44:31.762Z,8.26
2023-03-01T12:47:13.658Z,7.89
2023-03-01T12:49:56.906Z,8.23
2023-03-01T12:52:34.465Z,7.67
2023-03-01T12:55:03.703Z,8.35
2023-03-01T12:57:43.182Z,9.01
2023-03-01T13:00:39.139Z,8.96
2023-03-01T13:03:26.072Z,8.68
2023-03-01T13:06:11.933Z,6.83
2023-03-01T13:08:55.214Z,7.86
2023-03-01T13:11:23.722Z,6.76
2023-03-01T13:14:11.200Z,6.98
2023-03-01T13:16:37.536Z,7.20
2023-03-01T13:19:10.922Z,7.02
2023-03-01T13:21:37.335Z,7.82
2023-03-01T13:24:03.960Z,8.48
2023-03-01T13:26:30.911Z,7.68
2023-03-01T13:28:58.483Z,6.98
2023-03-01T13:31:27.653Z,7.17
2023-03-01T13:33:59.390Z,7.01
2023-03-01T13:36:29.182Z,8.71
2023-03-01T13:38:58.928Z,8.95
2023-03-01T13:42:01.291Z,7.21
2023-03-01T13:44:33.399Z,6.66
2023-03-01T13:47:15.603Z,6.76
2023-03-01T13:50:02.003Z,5.96
2023-03-01T13:52:32.973Z,5.77
2023-03-01T13:55:00.429Z,6.02
2023-03-01T13:57:33.466Z,6.37
2023-03-01T13:59:59.985Z,6.47
2023-03-01T14:02:26.505Z,5.66
2023-03-01T14:05:00.211Z,5.90
2023-03-01T14:07:31.679Z,6.14
2023-03-01T14:10:04.672Z,5.52
2023-03-01T14:12:52.420Z,5.47
2023-03-01T14:15:40.442Z,5.37
2023-03-01T14:18:15.838Z,5.35
2023-03-01T14:20:52.493Z,5.27
2023-03-01T14:23:23.274Z,5.35
2023-03-01T14:25:54.738Z,5.37
2023-03-01T14:28:23.170Z,5.45
2023-03-01T14:30:52.671Z,5.40
2023-03-01T14:33:29.949Z,5.21
2023-03-01T14:36:05.721Z,5.30
2023-03-01T14:38:41.618Z,5.25
2023-03-01T14:41:16.650Z,5.50
2023-03-01T14:43:47.908Z,5.32
2023-03-01T14:46:26.658Z,5.27
2023-03-01T14:48:57.352Z,5.41
2023-03-01T14:51:24.046Z,5.09
2023-03-01T14:53:51.720Z,5.31
2023-03-01T14:56:18.724Z,5.09
2023-03-01T14:58:45.168Z,5.04
2023-03-01T15:01:16.147Z,5.21
2023-03-01T15:03:44.963Z,5.20
2023-03-01T15:06:15.685Z,5.10
2023-03-01T15:08:45.760Z,5.21
2023-03-01T15:11:15.026Z,5.26
2023-03-01T15:13:41.884Z,5.18
2023-03-01T15:16:17.792Z,5.12
2023-03-01T15:18:53.679Z,5.02
2023-03-01T15:21:23.990Z,5.03
2023-03-01T15:23:54.497Z,4.99
2023-03-01T15:26:32.274Z,4.95
2023-03-01T15:29:00.969Z,4.87
2023-03-01T15:31:39.603Z,4.94
2023-03-01T15:34:24.858Z,4.88
2023-03-01T15:36:54.134Z,4.91
2023-03-01T15:39:53.441Z,4.80
2023-03-01T15:42:28.805Z,4.72
2023-03-01T15:45:21.883Z,4.75
2023-03-01T15:47:51.814Z,4.63
2023-03-01T15:50:27.601Z,4.57
2023-03-01T15:52:55.365Z,4.48
2023-03-01T15:55:30.756Z,4.51
2023-03-01T15:58:03.732Z,4.55
2023-03-01T16:00:30.293Z,4.40
2023-03-01T16:02:57.533Z,4.46
2023-03-01T16:05:27.839Z,4.38
2023-03-01T16:07:55.069Z,4.31
2023-03-01T16:10:22.030Z,4.27
2023-03-01T16:12:48.957Z,4.34
2023-03-01T16:15:21.463Z,4.16
2023-03-01T16:17:48.123Z,4.18
2023-03-01T16:20:27.309Z,4.23
2023-03-01T16:22:54.733Z,4.08
2023-03-01T16:25:22.215Z,4.06
2023-03-01T16:27:51.959Z,4.01
2023-03-01T16:30:23.621Z,4.03
2023-03-01T16:32:51.058Z,3.96
2023-03-01T16:35:21.723Z,3.84
2023-03-01T16:37:49.027Z,3.81
2023-03-01T16:40:25.189Z,3.76
2023-03-01T16:42:52.069Z,3.73
2023-03-01T16:45:26.498Z,3.64
2023-03-01T16:47:56.019Z,3.64
2023-03-01T16:50:23.873Z,3.59
2023-03-01T16:52:50.289Z,3.45
2023-03-01T16:55:17.949Z,3.52
2023-03-01T16:57:44.401Z,3.54
2023-03-01T17:00:13.883Z,3.50
2023-03-01T17:02:42.269Z,3.46
2023-03-01T17:05:10.892Z,3.42
2023-03-01T17:07:37.704Z,3.37
2023-03-01T17:10:09.416Z,3.38
2023-03-01T17:12:36.495Z,3.27
2023-03-01T17:15:04.379Z,3.31
2023-03-01T17:17:31.465Z,3.19
2023-03-01T17:19:58.409Z,3.20
2023-03-01T17:22:25.005Z,3.13
2023-03-01T17:24:51.456Z,3.14
2023-03-01T17:27:18.514Z,3.15
2023-03-01T17:29:45.057Z,3.13
2023-03-01T17:32:11.621Z,3.07
2023-03-01T17:34:38.176Z,3.05
2023-03-01T17:37:04.620Z,3.08
2023-03-01T17:39:36.052Z,3.07
2023-03-01T17:42:05.329Z,3.01
2023-03-01T17:44:34.541Z,2.94
2023-03-01T17:47:02.839Z,2.92
2023-03-01T17:49:29.611Z,2.93
2023-03-01T17:51:57.488Z,2.92
2023-03-01T17:54:23.978Z,2.89
2023-03-01T17:56:51.064Z,2.95
2023-03-01T17:59:20.256Z,2.85
2023-03-01T18:01:47.087Z,2.92
2023-03-01T18:04:13.807Z,2.83
2023-03-01T18:06:43.176Z,2.81
2023-03-01T18:09:09.748Z,2.79
2023-03-01T18:11:36.926Z,2.80
2023-03-01T18:14:04.571Z,2.73
2023-03-01T18:16:32.405Z,2.68
2023-03-01T18:19:00.683Z,2.65
2023-03-01T18:21:28.459Z,2.56
2023-03-01T18:23:54.980Z,2.50
2023-03-01T18:26:22.227Z,2.45
2023-03-01T18:28:51.717Z,2.33
2023-03-01T18:31:21.789Z,2.33
2023-03-01T18:33:49.370Z,2.20
2023-03-01T18:36:35.752Z,2.08
2023-03-01T18:39:05.621Z,1.95
2023-03-01T18:41:33.060Z,1.91
2023-03-01T18:43:59.706Z,1.88
2023-03-01T18:46:26.521Z,1.83
2023-03-01T18:48:54.086Z,1.80
2023-03-01T18:51:23.565Z,1.73
2023-03-01T18:53:49.993Z,1.67
2023-03-01T18:56:16.434Z,1.70
2023-03-01T18:58:43.400Z,1.69
2023-03-01T19:01:16.018Z,1.68
2023-03-01T19:03:42.784Z,1.66
2023-03-01T19:06:09.960Z,1.61
2023-03-01T19:08:37.051Z,1.58
2023-03-01T19:11:05.643Z,1.53
2023-03-01T19:13:34.008Z,1.49
2023-03-01T19:16:12.416Z,1.52
2023-03-01T19:18:41.199Z,1.47
2023-03-01T19:21:09.867Z,1.27
2023-03-01T19:23:36.833Z,1.31
2023-03-01T19:26:06.567Z,1.23
2023-03-01T19:28:34.280Z,1.24
2023-03-01T19:31:02.969Z,1.25
2023-03-01T19:33:31.027Z,1.26
2023-03-01T19:35:58.281Z,1.30
2023-03-01T19:38:25.948Z,1.16
2023-03-01T19:40:52.709Z,1.08
2023-03-01T19:43:19.411Z,0.98
2023-03-01T19:45:50.106Z,0.99
2023-03-01T19:48:16.561Z,0.96
2023-03-01T19:50:46.005Z,0.90
2023-03-01T19:53:14.590Z,0.86
2023-03-01T19:55:41.547Z,0.87
2023-03-01T19:58:10.468Z,0.85
2023-03-01T20:00:38.977Z,0.85
2023-03-01T20:03:05.468Z,0.89
2023-03-01T20:05:36.296Z,0.83
2023-03-01T20:08:03.789Z,0.83
2023-03-01T20:10:32.336Z,0.84
2023-03-01T20:12:59.294Z,0.96
2023-03-01T20:15:25.958Z,1.00
2023-03-01T20:17:52.696Z,0.97
2023-03-01T20:20:19.393Z,0.92
2023-03-01T20:22:45.813Z,0.91
2023-03-01T20:25:12.370Z,0.97
2023-03-01T20:27:38.945Z,0.99
2023-03-01T20:30:06.272Z,0.96
2023-03-01T20:32:33.422Z,0.95
2023-03-01T20:35:00.084Z,0.86
2023-03-01T20:37:26.536Z,0.87
2023-03-01T20:39:54.601Z,0.78
2023-03-01T20:42:21.011Z,0.84
2023-03-01T20:44:47.457Z,0.75
2023-03-01T20:47:14.617Z,0.81
2023-03-01T20:49:41.219Z,0.83
2023-03-01T20:52:07.811Z,0.88
2023-03-01T20:54:34.363Z,0.83
2023-03-01T20:57:02.240Z,0.78
2023-03-01T20:59:28.840Z,0.78
2023-03-01T21:01:55.716Z,0.77
2023-03-01T21:04:22.468Z,0.85
2023-03-01T21:06:48.956Z,0.85
2023-03-01T21:09:15.510Z,0.93
2023-03-01T21:11:41.981Z,0.90
2023-03-01T21:14:09.399Z,0.81
2023-03-01T21:16:36.459Z,0.85
2023-03-01T21:19:06.167Z,0.90
2023-03-01T21:21:32.933Z,0.97
2023-03-01T21:23:59.476Z,0.89
2023-03-01T21:26:27.483Z,0.94
2023-03-01T21:29:00.292Z,1.04
2023-03-01T21:31:34.023Z,1.02
2023-03-01T21:34:04.390Z,0.82
2023-03-01T21:36:31.845Z,0.90
2023-03-01T21:39:01.600Z,0.87
2023-03-01T21:41:31.425Z,0.87
2023-03-01T21:44:00.664Z,0.88
2023-03-01T21:46:31.196Z,0.94
2023-03-01T21:48:58.726Z,1.03
2023-03-01T21:51:27.029Z,1.09
2023-03-01T21:53:56.096Z,1.05
2023-03-01T21:56:25.773Z,1.12
2023-03-01T21:58:52.993Z,1.10
2023-03-01T22:01:25.465Z,1.19
2023-03-01T22:03:51.881Z,1.24
2023-03-01T22:06:28.932Z,1.19
2023-03-01T22:09:01.091Z,1.11
2023-03-01T22:11:28.451Z,1.09
2023-03-01T22:13:56.365Z,1.15
2023-03-01T22:16:26.113Z,1.13
2023-03-01T22:18:53.213Z,1.09
2023-03-01T22:21:20.619Z,1.03
2023-03-01T22:23:47.156Z,0.97
2023-03-01T22:26:30.712Z,1.05
2023-03-01T22:28:58.624Z,1.03
2023-03-01T22:31:25.810Z,1.00
2023-03-01T22:33:53.232Z,0.94
2023-03-01T22:36:22.661Z,0.90
2023-03-01T22:38:49.194Z,0.92
2023-03-01T22:41:15.838Z,0.87
2023-03-01T22:43:42.398Z,0.79
2023-03-01T22:46:11.351Z,0.82
2023-03-01T22:48:37.828Z,0.83
2023-03-01T22:51:04.508Z,0.77
2023-03-01T22:53:30.942Z,0.73
2023-03-01T22:55:57.339Z,0.74
2023-03-01T22:58:23.755Z,0.71
2023-03-01T23:00:51.060Z,0.83
2023-03-01T23:03:17.933Z,0.77
2023-03-01T23:05:44.439Z,0.82
2023-03-01T23:08:10.818Z,0.80
2023-03-01T23:10:40.775Z,0.77
2023-03-01T23:13:07.242Z,0.71
2023-03-01T23:15:33.846Z,0.84
2023-03-01T23:18:00.321Z,0.78
2023-03-01T23:20:26.734Z,0.73
2023-03-01T23:22:53.110Z,0.74
2023-03-01T23:25:19.526Z,0.68
2023-03-01T23:27:45.925Z,0.54
2023-03-01T23:30:12.539Z,0.43
2023-03-01T23:32:40.466Z,0.30
2023-03-01T23:35:09.732Z,0.36
2023-03-01T23:37:37.310Z,0.25
2023-03-01T23:40:06.323Z,0.18
2023-03-01T23:42:34.565Z,0.12
2023-03-01T23:45:01.032Z,0.23
2023-03-01T23:47:27.457Z,0.13
2023-03-01T23:49:53.894Z,0.14
2023-03-01T23:52:20.289Z,0.15
2023-03-01T23:54:46.851Z,0.07
2023-03-01T23:57:13.248Z,0.08
2023-03-01T23:59:40.959Z,0.04
